• Join FlightAware (Why Join?)
  • Login
  • US Flag 
05:29AM EDT


 

Airport Tracker/Info


-or-


 

Live Flight TrackerFlight Track Log ✈ N729JB ✈ 09-Apr-2013 ✈ KBOS - KLAX

Flight Track Log - Related Links

Times and Time Zones

All times are in EDT time to prevent confusion due to time zone crossing. See the N729JB flight status page for this flight to view local times or setup timezone preferences in your user account.

Time Position Orientation Groundspeed Altitude Reporting Facility
EDT Latitude Longitude Course Direction KTS MPH feet Rate Location/Type
07:37PM 42.3870 -70.9940 22° Northeast 154 177 1,100  Level FlightAware
07:38PM 42.4060 -70.9840 21° North 181 208 1,600 1,080 Climbing FlightAware
07:38PM 42.4320 -70.9670 26° Northeast 225 259 2,100 900 Climbing FlightAware
07:39PM 42.4430 -70.9500 49° Northeast 255 293 2,300 1,980 Climbing FlightAware
07:39PM 42.4530 -70.9010 75° East 272 313 3,600 2,760 Climbing FlightAware
07:39PM 42.4580 -70.8670 79° East 278 320 4,600 2,400 Climbing FlightAware
07:40PM 42.4520 -70.8320 103° East 297 342 5,200 2,040 Climbing FlightAware
07:40PM 42.4380 -70.8110 132° Southeast 301 346 5,800 2,160 Climbing FlightAware
07:40PM 42.4200 -70.8010 158° South 297 342 6,300 2,520 Climbing FlightAware
07:41PM 42.4260 -70.8030 346° North 288 331 7,500 2,700 Climbing FlightAware
07:41PM 42.3450 -70.8110 184° South 296 341 8,800 2,700 Climbing FlightAware
07:42PM 42.3080 -70.8170 187° South 291 335 10,000 1,920 Climbing FlightAware
07:42PM 42.2680 -70.8270 190° South 312 359 10,600 1,020 Climbing FlightAware
07:42PM 42.2500 -70.8460 218° Southwest 307 353 10,800 780 Climbing FlightAware
07:43PM 42.2400 -70.8700 241° Southwest 314 361 11,000 1,260 Climbing FlightAware
07:43PM 42.2300 -70.9520 261° West 335 386 12,000 1,800 Climbing FlightAware
07:44PM 42.2280 -71.0370 268° West 341 392 13,400 2,160 Climbing FlightAware
07:45PM 42.2250 -71.1300 268° West 339 390 15,100 2,160 Climbing FlightAware
07:45PM 42.2220 -71.2170 267° West 342 394 16,500 1,920 Climbing FlightAware
07:46PM 42.2190 -71.3020 267° West 346 398 17,700 1,500 Climbing FlightAware
07:47PM 42.2160 -71.4010 268° West 358 412 18,700 1,380 Climbing FlightAware
07:47PM 42.2130 -71.4890 267° West 365 420 19,700 1,500 Climbing FlightAware
07:48PM 42.2090 -71.5820 267° West 372 428 20,700 1,620 Climbing FlightAware
07:49PM 42.2050 -71.6880 267° West 371 427 22,000 1,620 Climbing FlightAware
07:49PM 42.2020 -71.7800 268° West 372 428 23,000 1,260 Climbing FlightAware
07:50PM 42.1980 -71.8760 267° West 377 434 23,800 1,260 Climbing FlightAware
07:51PM 42.1940 -71.9780 267° West 377 434 24,800 1,020 Climbing FlightAware
07:52PM 42.1900 -72.0740 267° West 389 448 25,200 840 Climbing FlightAware
07:52PM 42.1860 -72.1810 267° West 391 450 26,000 1,200 Climbing FlightAware
07:53PM 42.1810 -72.2810 266° West 389 448 26,900 960 Climbing FlightAware
07:54PM 42.1770 -72.3920 267° West 398 458 27,400 600 Climbing FlightAware
07:54PM 42.1720 -72.4920 266° West 402 463 27,800 840 Climbing FlightAware
07:55PM 42.1660 -72.6030 266° West 403 464 28,600 1,020 Climbing FlightAware
07:56PM 42.1500 -72.7020 258° West 409 471 29,300 900 Climbing FlightAware
07:56PM 42.1230 -72.7980 249° West 417 480 29,800 720 Climbing FlightAware
07:57PM 42.0800 -72.9010 241° Southwest 422 486 30,400 900 Climbing FlightAware
07:58PM 42.0390 -72.9930 239° Southwest 421 484 31,100 900 Climbing FlightAware
07:59PM 41.9960 -73.0900 239° Southwest 419 482 31,700 720 Climbing FlightAware
07:59PM 41.9641 -73.1618 239° Southwest 419 482 32,000 240 Climbing FlightAware ADS-B
08:00PM 41.9202 -73.2601 239° Southwest 419 482 32,000  Level FlightAware ADS-B
08:00PM 41.8871 -73.3336 239° Southwest 422 486 32,000  Level FlightAware ADS-B
08:01PM 41.8550 -73.4046 239° Southwest 419 482 32,000  Level FlightAware ADS-B
08:02PM 41.8203 -73.4815 239° Southwest 419 482 32,000  Level FlightAware ADS-B
08:02PM 41.7835 -73.5629 239° Southwest 417 480 32,000  Level FlightAware ADS-B
08:03PM 41.7516 -73.6334 239° Southwest 418 481 32,000  Level FlightAware ADS-B
08:03PM 41.7178 -73.7075 239° Southwest 418 481 32,000  Level FlightAware ADS-B
08:04PM 41.6790 -73.7923 239° Southwest 424 488 32,000  Level FlightAware ADS-B
08:04PM 41.6396 -73.8610 233° Southwest 436 502 32,000  Level FlightAware ADS-B
08:05PM 41.6074 -73.9100 229° Southwest 442 509 32,000 60 Level FlightAware ADS-B
08:05PM 41.5654 -73.9756 229° Southwest 443 510 32,100 60 Climbing FlightAware ADS-B
08:06PM 41.5238 -74.0401 229° Southwest 445 512 32,100  Level FlightAware ADS-B
08:06PM 41.4760 -74.1132 229° Southwest 446 513 32,100  Level FlightAware ADS-B
08:07PM 41.4337 -74.1778 229° Southwest 444 511 32,100  Level FlightAware ADS-B
08:07PM 41.3910 -74.2427 229° Southwest 442 509 32,100 -120 Level FlightAware ADS-B
08:08PM 41.3507 -74.3042 229° Southwest 442 509 32,000 -120 Descending FlightAware ADS-B
08:09PM 41.3065 -74.3710 229° Southwest 442 509 32,000  Level FlightAware ADS-B
08:09PM 41.2648 -74.4340 229° Southwest 443 510 32,000  Level FlightAware ADS-B
08:10PM 41.2255 -74.4986 231° Southwest 437 503 32,000  Level FlightAware ADS-B
08:10PM 41.1871 -74.5686 234° Southwest 436 502 32,000  Level FlightAware ADS-B
08:11PM 41.1505 -74.6359 234° Southwest 436 502 32,000  Level FlightAware ADS-B
08:11PM 41.1207 -74.6904 234° Southwest 437 503 32,000  Level FlightAware ADS-B
08:11PM 41.1119 -74.7064 234° Southwest 438 504 32,000  Level FlightAware ADS-B
08:12PM 41.0749 -74.7731 234° Southwest 438 504 32,000  Level FlightAware ADS-B
08:12PM 41.0363 -74.8428 234° Southwest 440 506 32,000  Level FlightAware ADS-B
08:12PM 41.0301 -74.8541 234° Southwest 440 506 32,000  Level FlightAware ADS-B
08:12PM 41.0186 -74.8774 237° Southwest 436 502 32,000  Level FlightAware ADS-B
08:13PM 41.0046 -74.9129 242° Southwest 431 496 32,000  Level FlightAware ADS-B
08:13PM 41.0022 -74.9202 246° West 431 496 32,000  Level FlightAware ADS-B
08:13PM 41.0007 -74.9253 249° West 433 498 32,000  Level FlightAware ADS-B
08:13PM 40.9822 -74.9929 250° West 428 493 32,000  Level FlightAware ADS-B
08:14PM 40.9570 -75.0712 247° West 431 496 32,000  Level FlightAware ADS-B
08:14PM 40.9321 -75.1453 246° West 420 483 32,000  Level FlightAware ADS-B
08:15PM 40.9080 -75.2181 246° West 412 474 32,000  Level FlightAware ADS-B
08:15PM 40.8852 -75.2874 247° West 417 480 32,000 60 Level FlightAware ADS-B
08:16PM 40.8617 -75.3590 247° West 425 489 32,100 360 Climbing FlightAware ADS-B
08:16PM 40.8379 -75.4314 247° West 430 495 32,400 600 Climbing FlightAware ADS-B
08:17PM 40.8138 -75.5051 247° West 432 497 32,700 780 Climbing FlightAware ADS-B
08:17PM 40.7894 -75.5789 246° West 431 496 33,200 960 Climbing FlightAware ADS-B
08:18PM 40.7658 -75.6508 247° West 428 493 33,700 780 Climbing FlightAware ADS-B
08:18PM 40.7417 -75.7236 246° West 429 494 34,000 240 Climbing FlightAware ADS-B
08:19PM 40.7178 -75.7957 246° West 429 494 34,000  Level FlightAware ADS-B
08:19PM 40.6945 -75.8660 246° West 434 499 34,000  Level FlightAware ADS-B
08:20PM 40.6863 -75.8984 252° West 430 495 34,000  Level FlightAware ADS-B
08:20PM 40.6838 -75.9138 258° West 428 493 34,000  Level FlightAware ADS-B
08:20PM 40.6745 -75.9955 261° West 426 490 34,000  Level FlightAware ADS-B
08:21PM 40.6657 -76.0738 262° West 427 491 34,000  Level FlightAware ADS-B
08:21PM 40.6566 -76.1531 261° West 425 489 34,000  Level FlightAware ADS-B
08:22PM 40.6472 -76.2329 261° West 422 486 34,000  Level FlightAware ADS-B
08:22PM 40.6382 -76.3103 261° West 414 476 34,000  Level FlightAware ADS-B
08:23PM 40.6296 -76.3853 261° West 414 476 34,000  Level FlightAware ADS-B
08:23PM 40.6239 -76.4214 258° West 418 481 34,000  Level FlightAware ADS-B
08:23PM 40.6159 -76.4540 252° West 424 488 34,000  Level FlightAware ADS-B
08:24PM 40.5895 -76.5381 248° West 424 488 34,000  Level FlightAware ADS-B
08:24PM 40.5670 -76.6113 248° West 424 488 34,000  Level FlightAware ADS-B
08:25PM 40.5444 -76.6838 248° West 425 489 34,000  Level FlightAware ADS-B
08:25PM 40.5189 -76.7663 248° West 424 488 34,000  Level FlightAware ADS-B
08:26PM 40.4967 -76.8393 248° West 423 487 34,000  Level FlightAware ADS-B
08:26PM 40.4750 -76.9110 248° West 422 486 34,000  Level FlightAware ADS-B
08:27PM 40.4530 -76.9854 249° West 420 483 34,000  Level FlightAware ADS-B
08:28PM 40.4316 -77.0606 250° West 417 480 34,000  Level FlightAware ADS-B
08:28PM 40.4094 -77.1389 250° West 416 479 34,000  Level FlightAware ADS-B
08:29PM 40.3814 -77.2389 250° West 415 478 34,000  Level FlightAware ADS-B
08:30PM 40.3396 -77.3903 250° West 413 475 34,000  Level FlightAware ADS-B
08:31PM 40.3127 -77.4867 250° West 415 478 34,000  Level FlightAware ADS-B
08:31PM 40.2923 -77.5596 250° West 418 481 34,000  Level FlightAware ADS-B
08:32PM 40.2702 -77.6409 250° West 417 480 34,000  Level FlightAware ADS-B
08:33PM 40.2690 -77.7810 269° West 406 467 34,000  Level FlightAware
08:33PM 40.2710 -77.8820 272° West 404 465 34,000  Level FlightAware
08:34PM 40.2730 -77.9770 272° West 403 464 34,000  Level FlightAware
08:35PM 40.2740 -78.0790 271° West 403 464 34,000  Level FlightAware
08:35PM 40.2750 -78.1930 271° West 404 465 34,000  Level FlightAware
08:36PM 40.2760 -78.2830 271° West 403 464 34,000 60 Level FlightAware
08:37PM 40.2780 -78.3990 271° West 402 463 34,100  Climbing FlightAware
08:38PM 40.2790 -78.4910 271° West 400 460 34,000 -120 Descending FlightAware
08:38PM 40.2790 -78.5910 270° West 400 460 34,000  Level FlightAware
08:39PM 40.2800 -78.7010 271° West 402 463 34,000  Level FlightAware
08:40PM 40.2810 -78.8030 271° West 406 467 34,000  Level FlightAware
08:40PM 40.2820 -78.9120 271° West 406 467 34,000 60 Level FlightAware
08:41PM 40.2820 -79.0080 270° West 406 467 34,100  Climbing FlightAware
08:42PM 40.2830 -79.1030 271° West 410 472 34,000 -120 Descending FlightAware
08:42PM 40.2830 -79.2100 270° West 418 481 34,000  Level FlightAware
08:43PM 40.2840 -79.3230 271° West 418 481 34,000  Level FlightAware
08:44PM 40.2840 -79.4250 270° West 419 482 34,000  Level FlightAware
08:44PM 40.2840 -79.5300 270° West 420 483 34,000  Level FlightAware
08:45PM 40.2840 -79.6350 270° West 420 483 34,000  Level FlightAware
08:46PM 40.2840 -79.7490 270° West 420 483 34,000  Level FlightAware
08:47PM 40.2840 -79.8740 270° West 419 482 34,000  Level FlightAware
08:47PM 40.2830 -79.9750 269° West 417 480 34,000  Level FlightAware
08:48PM 40.2830 -80.0750 270° West 416 479 34,000  Level FlightAware
08:49PM 40.2830 -80.1770 270° West 415 478 34,000  Level FlightAware
08:49PM 40.2820 -80.2920 269° West 417 480 34,000  Level FlightAware
08:50PM 40.2810 -80.4050 269° West 419 482 34,000  Level FlightAware
08:51PM 40.2800 -80.5040 269° West 420 483 34,000  Level FlightAware
08:52PM 40.2800 -80.6040 270° West 421 484 34,000 60 Level FlightAware
08:52PM 40.2790 -80.7230 269° West 418 481 34,100 60 Climbing FlightAware
08:53PM 40.2770 -80.8220 269° West 415 478 34,100 -120 Level FlightAware
08:54PM 40.2760 -80.9320 269° West 413 475 34,000 -120 Descending FlightAware
08:54PM 40.2750 -81.0340 269° West 413 475 34,000  Level FlightAware
08:55PM 40.2740 -81.1320 269° West 412 474 34,000  Level FlightAware
08:56PM 40.2720 -81.2310 269° West 411 473 34,000  Level FlightAware
08:56PM 40.2710 -81.3460 269° West 409 471 34,000  Level FlightAware
08:57PM 40.2690 -81.4550 269° West 408 470 34,000  Level FlightAware
08:58PM 40.2680 -81.5540 269° West 409 471 34,000  Level FlightAware
08:59PM 40.2660 -81.6510 268° West 409 471 34,000  Level FlightAware
08:59PM 40.2640 -81.7650 269° West 410 472 34,000  Level FlightAware
09:00PM 40.2620 -81.8640 269° West 409 471 34,000  Level FlightAware
09:01PM 40.2600 -81.9730 269° West 409 471 34,000  Level FlightAware
09:01PM 40.2580 -82.0700 268° West 409 471 34,000  Level FlightAware
09:02PM 40.2550 -82.1700 268° West 408 470 34,000  Level FlightAware
09:03PM 40.2530 -82.2680 268° West 408 470 34,000  Level FlightAware
09:03PM 40.2510 -82.3800 269° West 407 468 34,000  Level FlightAware
09:04PM 40.2480 -82.4870 268° West 405 466 34,000  Level FlightAware
09:05PM 40.2450 -82.5900 268° West 405 466 34,000  Level FlightAware
09:06PM 40.2430 -82.6830 268° West 403 464 34,000  Level FlightAware
09:06PM 40.2400 -82.7930 268° West 404 465 34,000  Level FlightAware
09:07PM 40.2370 -82.8760 267° West 406 467 34,000  Level FlightAware
09:08PM 40.2340 -82.9930 268° West 408 470 34,000  Level FlightAware
09:08PM 40.2310 -83.1020 268° West 408 470 34,000  Level FlightAware
09:09PM 40.2280 -83.2020 268° West 406 467 34,000  Level FlightAware
09:10PM 40.2240 -83.3080 267° West 405 466 34,000  Level FlightAware
09:10PM 40.2210 -83.4050 268° West 404 465 34,000  Level FlightAware
09:11PM 40.2180 -83.5170 268° West 403 464 34,000  Level FlightAware
09:11PM 40.2160 -83.5530 266° West 404 465 34,000  Level FlightAware
09:12PM 40.2110 -83.6930 267° West 405 466 34,000  Level FlightAware
09:13PM 40.2080 -83.7910 268° West 406 467 34,000  Level FlightAware
09:14PM 40.2040 -83.9000 267° West 405 466 34,000  Level FlightAware
09:15PM 40.2000 -84.0080 267° West 404 465 34,000  Level FlightAware
09:15PM 40.1960 -84.1050 267° West 404 465 34,000  Level FlightAware
09:16PM 40.1910 -84.2400 267° West 406 467 34,000  Level FlightAware
09:17PM 40.1860 -84.3480 267° West 407 468 34,000  Level FlightAware
09:17PM 40.1830 -84.4280 267° West 407 468 34,000  Level FlightAware
09:18PM 40.1780 -84.5460 267° West 409 471 34,000  Level FlightAware
09:19PM 40.1730 -84.6570 267° West 409 471 34,000  Level FlightAware
09:20PM 40.1690 -84.7550 267° West 409 471 34,000  Level FlightAware
09:20PM 40.1640 -84.8540 266° West 409 471 34,000  Level FlightAware
09:21PM 40.1590 -84.9680 267° West 410 472 34,000  Level FlightAware
09:22PM 40.1550 -85.0650 267° West 411 473 34,000  Level FlightAware
09:22PM 40.1500 -85.1680 266° West 411 473 34,000  Level FlightAware
09:23PM 40.1450 -85.2700 266° West 410 472 34,000  Level FlightAware
09:24PM 40.1400 -85.3720 266° West 411 473 34,000  Level FlightAware
09:25PM 40.1340 -85.4840 266° West 412 474 34,000  Level FlightAware
09:25PM 40.1270 -85.6150 266° West 412 474 34,000  Level FlightAware
09:26PM 40.1230 -85.6990 266° West 412 474 34,000  Level FlightAware
09:27PM 40.1160 -85.8280 266° West 410 472 34,000  Level FlightAware
09:28PM 40.1110 -85.9240 266° West 411 473 34,000  Level FlightAware
09:28PM 40.1040 -86.0420 266° West 413 475 34,000  Level FlightAware
09:29PM 40.0990 -86.1410 266° West 415 478 34,000  Level FlightAware
09:30PM 40.0930 -86.2430 266° West 415 478 34,000  Level FlightAware
09:30PM 40.0870 -86.3530 266° West 415 478 34,000  Level FlightAware
09:31PM 40.0810 -86.4540 266° West 416 479 34,000  Level FlightAware
09:32PM 40.0740 -86.5670 265° West 417 480 34,000  Level FlightAware
09:32PM 40.0680 -86.6670 266° West 416 479 34,000  Level FlightAware
09:33PM 40.0620 -86.7680 266° West 416 479 34,000  Level FlightAware
09:34PM 40.0550 -86.8740 265° West 415 478 34,000  Level FlightAware
09:35PM 40.0480 -86.9760 265° West 413 475 34,000  Level FlightAware
09:35PM 40.0410 -87.0880 265° West 411 473 34,000  Level FlightAware
09:36PM 40.0350 -87.1900 266° West 410 472 34,000  Level FlightAware
09:37PM 40.0280 -87.2950 265° West 409 471 34,000  Level FlightAware
09:37PM 40.0210 -87.3990 265° West 410 472 34,000  Level FlightAware
09:38PM 40.0140 -87.4990 265° West 411 473 34,000  Level FlightAware
09:39PM 40.0060 -87.6090 265° West 412 474 34,000  Level FlightAware
09:39PM 39.9990 -87.7060 265° West 412 474 34,000  Level FlightAware
09:40PM 39.9930 -87.7980 265° West 412 474 34,000  Level FlightAware
09:41PM 39.9850 -87.9130 265° West 410 472 34,000  Level FlightAware
09:41PM 39.9790 -87.9970 265° West 410 472 34,000  Level FlightAware
09:43PM 39.9650 -88.1800 264° West 410 472 34,000  Level FlightAware
09:43PM 39.9570 -88.2820 264° West 411 473 34,000  Level FlightAware
09:44PM 39.9490 -88.3960 265° West 415 478 34,000  Level FlightAware
09:45PM 39.9410 -88.4930 264° West 416 479 34,000 60 Level FlightAware
09:46PM 39.9320 -88.6060 264° West 412 474 34,100  Climbing FlightAware
09:46PM 39.9250 -88.6980 264° West 410 472 34,000 -120 Descending FlightAware
09:47PM 39.9150 -88.8130 264° West 407 468 34,000  Level FlightAware
09:48PM 39.9060 -88.9220 264° West 405 466 34,000  Level FlightAware
09:48PM 39.8980 -89.0110 263° West 405 466 34,000  Level FlightAware
09:49PM 39.8890 -89.1190 264° West 406 467 34,000  Level FlightAware
09:50PM 39.8800 -89.2240 264° West 407 468 34,000  Level FlightAware
09:50PM 39.8720 -89.3200 264° West 408 470 34,000  Level FlightAware
09:51PM 39.8620 -89.4340 264° West 410 472 34,000  Level FlightAware
09:52PM 39.8530 -89.5300 263° West 410 472 34,000  Level FlightAware
09:53PM 39.8450 -89.6300 264° West 411 473 34,000  Level FlightAware
09:53PM 39.8360 -89.7400 264° West 411 473 34,000  Level FlightAware
09:54PM 39.8290 -89.8270 264° West 411 473 34,000  Level FlightAware
09:55PM 39.8200 -89.9350 264° West 411 473 34,000  Level FlightAware
09:55PM 39.8110 -90.0470 264° West 411 473 34,000  Level FlightAware
09:56PM 39.8020 -90.1570 264° West 411 473 34,000  Level FlightAware
09:57PM 39.7950 -90.2350 263° West 411 473 34,000  Level FlightAware
09:57PM 39.7850 -90.3440 263° West 411 473 34,000  Level FlightAware
09:58PM 39.7750 -90.4610 264° West 407 468 34,000  Level FlightAware
09:59PM 39.7670 -90.5580 264° West 407 468 34,000  Level FlightAware
10:00PM 39.7570 -90.6700 263° West 407 468 34,000  Level FlightAware
10:00PM 39.7500 -90.7460 263° West 407 468 34,000  Level FlightAware
10:01PM 39.7390 -90.8620 263° West 408 470 34,000  Level FlightAware
10:02PM 39.7290 -90.9720 263° West 410 472 34,000  Level FlightAware
10:02PM 39.7200 -91.0740 263° West 411 473 34,000  Level FlightAware
10:03PM 39.7110 -91.1660 263° West 412 474 34,000  Level FlightAware
10:04PM 39.7000 -91.2790 263° West 411 473 34,000  Level FlightAware
10:04PM 39.6910 -91.3720 263° West 410 472 34,000  Level FlightAware
10:05PM 39.6820 -91.4700 263° West 409 471 34,000  Level FlightAware
10:06PM 39.6740 -91.5520 263° West 409 471 34,000  Level FlightAware
10:07PM 39.6610 -91.6820 263° West 408 470 34,000  Level FlightAware
10:07PM 39.6510 -91.7890 263° West 408 470 34,000  Level FlightAware
10:08PM 39.6410 -91.8850 262° West 407 468 34,000  Level FlightAware
10:09PM 39.6310 -91.9810 262° West 409 471 34,000  Level FlightAware
10:10PM 39.6160 -92.1300 263° West 414 476 34,000  Level FlightAware
10:10PM 39.6060 -92.2280 262° West 417 480 34,000  Level FlightAware
10:11PM 39.5940 -92.3430 262° West 420 483 34,000  Level FlightAware
10:12PM 39.5820 -92.4570 262° West 420 483 34,000 60 Level FlightAware
10:13PM 39.5700 -92.5710 262° West 419 482 34,100  Climbing FlightAware
10:13PM 39.5580 -92.6840 262° West 410 472 34,000 -60 Descending FlightAware
10:14PM 39.5430 -92.8100 261° West 412 474 34,000  Level FlightAware
10:15PM 39.5340 -92.9020 263° West 407 468 34,000  Level FlightAware
10:16PM 39.5210 -93.0210 262° West 405 466 34,000  Level FlightAware
10:17PM 39.5120 -93.1590 265° West 414 476 34,000  Level FlightAware
10:17PM 39.5270 -93.2420 283° West 429 494 34,000  Level FlightAware
10:18PM 39.5580 -93.3650 288° West 430 495 34,000  Level FlightAware
10:19PM 39.5830 -93.4640 288° West 430 495 34,000  Level FlightAware
10:19PM 39.6060 -93.5610 287° West 426 490 34,000  Level FlightAware
10:20PM 39.6190 -93.6770 278° West 423 487 34,000  Level FlightAware
10:21PM 39.6280 -93.7760 277° West 424 488 34,000  Level FlightAware
10:22PM 39.6390 -93.8880 277° West 426 490 34,000  Level FlightAware
10:22PM 39.6480 -93.9890 277° West 425 489 34,000  Level FlightAware
10:23PM 39.6580 -94.0910 277° West 425 489 34,000  Level FlightAware
10:24PM 39.6680 -94.2070 276° West 426 490 34,000  Level FlightAware
10:24PM 39.6780 -94.3080 277° West 427 491 34,000  Level FlightAware
10:25PM 39.6880 -94.4110 277° West 426 490 34,000  Level FlightAware
10:26PM 39.7000 -94.5210 278° West 430 495 34,000  Level FlightAware
10:26PM 39.7310 -94.6170 293° West 430 495 34,000 60 Level FlightAware
10:27PM 39.7680 -94.7070 298° West 434 499 34,100 300 Climbing FlightAware
10:28PM 39.8120 -94.8130 298° West 436 502 34,500 660 Climbing FlightAware
10:28PM 39.8480 -94.9050 297° West 433 498 35,100 660 Climbing FlightAware
10:29PM 39.8970 -95.0350 296° West 431 496 35,600 300 Climbing FlightAware
10:30PM 39.9270 -95.1150 296° West 431 496 35,600  Level FlightAware
10:31PM 39.9570 -95.1940 296° West 431 496 35,600 240 Level FlightAware
10:32PM 40.0180 -95.3330 300° West 425 489 36,000 240 Climbing FlightAware
10:32PM 40.0560 -95.4310 297° West 425 489 36,000  Level FlightAware
10:33PM 40.0860 -95.5090 297° West 425 489 36,000  Level FlightAware
10:34PM 40.1170 -95.5860 298° West 425 489 36,000  Level FlightAware
10:34PM 40.1470 -95.6640 297° West 425 489 36,000  Level FlightAware
10:35PM 40.1850 -95.7620 297° West 425 489 36,000  Level FlightAware
10:36PM 40.2150 -95.8400 297° West 425 489 36,000  Level FlightAware
10:37PM 40.2460 -95.9180 298° West 425 489 36,000  Level FlightAware
10:37PM 40.2760 -95.9960 297° West 425 489 36,000  Level FlightAware
10:38PM 40.3060 -96.0740 297° West 425 489 36,000  Level FlightAware
10:39PM 40.3440 -96.1720 297° West 425 489 36,000  Level FlightAware
10:39PM 40.3750 -96.2500 298° West 425 489 36,000  Level FlightAware
10:40PM 40.4050 -96.3280 297° West 425 489 36,000  Level FlightAware
10:41PM 40.4350 -96.4060 297° West 425 489 36,000  Level FlightAware
10:41PM 40.5311 -96.7164 297° West 445 512 36,000  Level Kansas City Center
10:42PM 40.5419 -96.7492 294° West 448 516 36,000  Level Minneapolis Center
10:43PM 40.5933 -96.8981 294° West 442 509 36,000  Level Minneapolis Center
10:44PM 40.6522 -97.0703 294° West 427 491 36,000  Level Minneapolis Center
10:45PM 40.6747 -97.2194 281° West 406 467 36,000  Level Minneapolis Center
10:46PM 40.6453 -97.3575 254° West 390 449 36,000  Level Minneapolis Center
10:47PM 40.6150 -97.4950 254° West 391 450 36,000  Level Minneapolis Center
10:48PM 40.5844 -97.6322 254° West 389 448 36,100  Climbing Minneapolis Center
10:49PM 40.5536 -97.7683 253° West 385 443 36,100 -60 Level Minneapolis Center
10:50PM 40.5231 -97.9025 253° West 381 438 36,000 -60 Descending Minneapolis Center
10:51PM 40.4928 -98.0353 253° West 376 433 36,000  Level Minneapolis Center
10:52PM 40.4622 -98.1681 253° West 379 436 36,000  Level Minneapolis Center
10:53PM 40.4314 -98.3017 253° West 383 441 36,000  Level Minneapolis Center
10:54PM 40.4003 -98.4367 253° West 385 443 36,100 -240 Climbing Minneapolis Center
10:55PM 40.3686 -98.5714 253° West 386 444 35,600 -1,080 Descending Minneapolis Center
10:56PM 40.3361 -98.7081 253° West 395 455 34,000 -840 Descending Minneapolis Center
10:57PM 40.3022 -98.8517 253° West 416 479 34,000  Level Minneapolis Center
10:58PM 40.2750 -98.9669 253° West 414 476 34,000  Level Denver Center
10:59PM 40.2397 -99.1119 252° West 417 480 34,000  Level Denver Center
11:00PM 40.1994 -99.2792 253° West 404 465 34,000  Level Denver Center
11:01PM 40.1653 -99.4222 253° West 408 470 34,000  Level Denver Center
11:02PM 40.1311 -99.5622 252° West 403 464 34,000  Level Denver Center
11:03PM 40.0906 -99.7275 252° West 397 457 34,000  Level Denver Center
11:04PM 40.0567 -99.8628 252° West 391 450 34,000  Level Denver Center
11:05PM 40.0233 -99.9986 252° West 393 452 34,000  Level Denver Center
11:06PM 39.9892 -100.1350 252° West 393 452 34,000  Level Denver Center
11:07PM 39.9533 -100.2756 252° West 402 463 34,000  Level Denver Center
11:08PM 39.9192 -100.4122 252° West 410 472 34,000  Level Denver Center
11:14PM 39.6911 -101.2950 252° West 420 483 34,000  Level FlightAware ADS-B
11:15PM 39.6722 -101.3660 251° West 421 484 34,000  Level FlightAware ADS-B
11:15PM 39.6531 -101.4390 251° West 423 487 34,000 60 Level FlightAware ADS-B
11:16PM 39.6350 -101.5080 251° West 423 487 34,100 60 Climbing FlightAware ADS-B
11:16PM 39.6154 -101.5820 251° West 421 484 34,100 -120 Level FlightAware ADS-B
11:17PM 39.5963 -101.6540 251° West 421 484 34,000 -120 Descending FlightAware ADS-B
11:17PM 39.5768 -101.7270 251° West 421 484 34,000  Level FlightAware ADS-B
11:18PM 39.5537 -101.8120 251° West 423 487 34,000  Level FlightAware ADS-B
11:18PM 39.5344 -101.8840 251° West 422 486 34,000  Level FlightAware ADS-B
11:19PM 39.5144 -101.9580 251° West 422 486 34,000  Level FlightAware ADS-B
11:19PM 39.4948 -102.0310 251° West 421 484 34,000  Level FlightAware ADS-B
11:20PM 39.4753 -102.1030 251° West 421 484 34,000  Level FlightAware ADS-B
11:20PM 39.4560 -102.1740 251° West 419 482 34,000  Level FlightAware ADS-B
11:21PM 39.4365 -102.2450 250° West 417 480 34,000  Level FlightAware ADS-B
11:22PM 39.4169 -102.3170 251° West 417 480 34,000  Level FlightAware ADS-B
11:22PM 39.3974 -102.3870 250° West 416 479 34,000  Level FlightAware ADS-B
11:23PM 39.3777 -102.4590 251° West 424 488 34,000  Level FlightAware ADS-B
11:23PM 39.3573 -102.5320 250° West 430 495 34,000  Level FlightAware ADS-B
11:24PM 39.3373 -102.6050 251° West 430 495 34,000  Level FlightAware ADS-B
11:24PM 39.3171 -102.6780 250° West 428 493 34,000  Level FlightAware ADS-B
11:25PM 39.2970 -102.7500 250° West 428 493 34,000  Level FlightAware ADS-B
11:25PM 39.2766 -102.8240 250° West 426 490 34,000  Level FlightAware ADS-B
11:26PM 39.2567 -102.8950 250° West 424 488 34,000  Level FlightAware ADS-B
11:26PM 39.2360 -102.9690 250° West 423 487 34,000  Level FlightAware ADS-B
11:27PM 39.2161 -103.0400 250° West 423 487 34,000  Level FlightAware ADS-B
11:27PM 39.1958 -103.1110 250° West 425 489 34,000  Level FlightAware ADS-B
11:28PM 39.1755 -103.1830 250° West 427 491 34,000  Level FlightAware ADS-B
11:28PM 39.1548 -103.2550 250° West 428 493 34,000  Level FlightAware ADS-B
11:29PM 39.1343 -103.3280 250° West 427 491 34,000  Level FlightAware ADS-B
11:29PM 39.1138 -103.4000 250° West 427 491 34,000  Level FlightAware ADS-B
11:30PM 39.0932 -103.4720 250° West 428 493 34,000  Level FlightAware ADS-B
11:30PM 39.0725 -103.5440 250° West 429 494 34,000  Level FlightAware ADS-B
11:31PM 39.0513 -103.6170 250° West 430 495 34,000  Level FlightAware ADS-B
11:31PM 39.0302 -103.6900 250° West 432 497 34,000  Level FlightAware ADS-B
11:32PM 39.0086 -103.7650 250° West 434 499 34,000 60 Level FlightAware ADS-B
11:32PM 38.9874 -103.8380 250° West 438 504 34,100 540 Climbing FlightAware ADS-B
11:33PM 38.9653 -103.9130 249° West 437 503 34,600 900 Climbing FlightAware ADS-B
11:33PM 38.9431 -103.9890 249° West 437 503 35,100 720 Climbing FlightAware ADS-B
11:34PM 38.9216 -104.0630 250° West 439 505 35,400 780 Climbing FlightAware ADS-B
11:34PM 38.9001 -104.1360 249° West 437 503 35,900 540 Climbing FlightAware ADS-B
11:35PM 38.8786 -104.2090 249° West 435 501 36,000 60 Climbing FlightAware ADS-B
11:35PM 38.8568 -104.2830 249° West 440 506 36,000  Level FlightAware ADS-B
11:36PM 38.8330 -104.3630 249° West 443 510 36,000  Level FlightAware ADS-B
11:36PM 38.8110 -104.4370 249° West 441 507 36,000  Level FlightAware ADS-B
11:37PM 38.7890 -104.5110 249° West 439 505 36,000  Level FlightAware ADS-B
11:37PM 38.7673 -104.5840 249° West 436 502 36,000  Level FlightAware ADS-B
11:38PM 38.7456 -104.6560 249° West 435 501 36,000  Level FlightAware ADS-B
11:38PM 38.7230 -104.7320 249° West 434 499 36,000  Level FlightAware
11:38PM 38.7176 -104.7490 248° West 434 499 36,000  Level FlightAware ADS-B
11:39PM 38.6937 -104.8280 249° West 433 498 36,000  Level FlightAware ADS-B
11:39PM 38.6717 -104.9010 249° West 433 498 36,000  Level FlightAware ADS-B
11:40PM 38.6500 -104.9730 249° West 433 498 36,000  Level FlightAware ADS-B
11:40PM 38.6281 -105.0450 249° West 434 499 36,000  Level FlightAware ADS-B
11:41PM 38.6062 -105.1170 249° West 433 498 36,000  Level FlightAware ADS-B
11:41PM 38.5842 -105.1890 249° West 433 498 36,000  Level FlightAware ADS-B
11:42PM 38.5619 -105.2620 249° West 435 501 36,000  Level FlightAware ADS-B
11:42PM 38.5394 -105.3350 249° West 436 502 36,000  Level FlightAware ADS-B
11:43PM 38.5172 -105.4070 249° West 437 503 36,000  Level FlightAware ADS-B
11:44PM 38.4947 -105.4800 249° West 438 504 36,000  Level FlightAware ADS-B
11:44PM 38.4722 -105.5530 249° West 438 504 36,000  Level FlightAware ADS-B
11:45PM 38.4499 -105.6250 248° West 440 506 36,000  Level FlightAware ADS-B
11:45PM 38.4261 -105.7010 248° West 440 506 36,000  Level FlightAware ADS-B
11:46PM 38.4035 -105.7740 248° West 441 507 36,000  Level FlightAware ADS-B
11:46PM 38.3805 -105.8470 248° West 442 509 36,000  Level FlightAware ADS-B
11:47PM 38.3576 -105.9190 248° West 443 510 36,000  Level FlightAware ADS-B
11:47PM 38.3348 -105.9920 248° West 443 510 36,000  Level FlightAware ADS-B
11:48PM 38.3117 -106.0660 248° West 443 510 36,000  Level FlightAware ADS-B
11:48PM 38.2878 -106.1410 248° West 443 510 36,000  Level FlightAware ADS-B
11:49PM 38.2583 -106.2340 248° West 443 510 36,000  Level FlightAware ADS-B
11:49PM 38.2349 -106.3080 248° West 441 507 36,000  Level FlightAware ADS-B
11:50PM 38.2117 -106.3810 248° West 440 506 36,000  Level FlightAware ADS-B
11:50PM 38.1886 -106.4530 248° West 440 506 36,000  Level FlightAware ADS-B
11:51PM 38.1624 -106.5340 248° West 440 506 36,000  Level FlightAware ADS-B
11:51PM 38.1391 -106.6070 248° West 441 507 36,000  Level FlightAware ADS-B
11:52PM 38.1138 -106.6850 248° West 443 510 36,000  Level FlightAware ADS-B
11:53PM 38.0824 -106.7830 248° West 445 512 36,000  Level FlightAware ADS-B
11:54PM 38.0257 -106.9570 248° West 450 518 36,000  Level FlightAware ADS-B
11:54PM 38.0092 -107.0044 248° West 450 518 36,000  Level Denver Center
11:55PM 37.9558 -107.1686 248° West 450 518 36,000  Level Denver Center
11:56PM 37.9108 -107.3047 247° West 450 518 36,000  Level Denver Center
11:57PM 37.8653 -107.4436 247° West 448 516 36,000  Level Denver Center
11:58PM 37.8111 -107.6064 247° West 450 518 36,000  Level Denver Center
11:59PM 37.7650 -107.7456 247° West 450 518 36,000  Level Denver Center
12:00AM 37.7097 -107.9097 247° West 454 522 36,000  Level Denver Center
12:01AM 37.6633 -108.0494 247° West 453 521 36,000  Level Denver Center
12:02AM 37.6164 -108.1861 247° West 447 514 36,000  Level Denver Center
12:03AM 37.5608 -108.3497 247° West 452 520 36,000  Level Denver Center
12:04AM 37.5142 -108.4867 247° West 450 518 36,000  Level Denver Center
12:05AM 37.4656 -108.6228 246° West 447 514 36,000  Level Denver Center
12:06AM 37.4106 -108.7850 247° West 450 518 36,000  Level Denver Center
12:08AM 37.3628 -108.9228 246° West 451 519 36,000  Level Denver Center
12:09AM 37.2981 -109.1081 246° West 455 524 36,000  Level Denver Center
12:10AM 37.2492 -109.2461 246° West 453 521 36,000  Level Denver Center
12:11AM 37.2006 -109.3844 246° West 454 522 36,000  Level Denver Center
12:12AM 37.1436 -109.5461 246° West 456 525 36,000  Level Denver Center
12:13AM 37.0936 -109.6856 246° West 459 528 36,000  Level Denver Center
12:14AM 37.0447 -109.8219 246° West 453 521 36,000  Level Denver Center
12:15AM 36.9878 -109.9800 246° West 449 517 36,000  Level Denver Center
12:16AM 36.9375 -110.1172 245° Southwest 453 521 36,000  Level Denver Center
12:17AM 36.8814 -110.2717 246° West 455 524 36,000  Level Denver Center
12:18AM 36.8281 -110.4172 245° Southwest 461 531 36,000  Level Denver Center
12:19AM 36.7750 -110.5628 246° West 462 532 36,000  Level Denver Center
12:20AM 36.7211 -110.7089 245° Southwest 464 534 36,000  Level Denver Center
12:21AM 36.6683 -110.8533 246° West 461 531 36,000  Level Denver Center
12:22AM 36.6153 -110.9983 246° West 460 529 36,000  Level Denver Center
12:23AM 36.5614 -111.1431 245° Southwest 461 531 36,000  Level Denver Center
12:24AM 36.5042 -111.2883 244° Southwest 465 535 36,000  Level Denver Center
12:25AM 36.4517 -111.4317 246° West 460 529 36,000  Level Denver Center
12:26AM 36.3958 -111.5778 245° Southwest 464 534 36,000  Level Denver Center
12:31AM 36.0720 -112.4200 245° Southwest 471 542 36,000  Level FlightAware
12:32AM 36.0410 -112.5010 245° Southwest 471 542 36,000  Level FlightAware
12:33AM 35.9890 -112.6340 244° Southwest 470 541 36,000  Level FlightAware
12:34AM 35.9510 -112.7310 244° Southwest 473 544 36,000  Level FlightAware
12:34AM 35.9120 -112.8290 244° Southwest 474 545 36,000  Level FlightAware
12:35AM 35.8700 -112.9360 244° Southwest 477 549 36,000  Level FlightAware
12:36AM 35.8310 -113.0340 244° Southwest 476 548 36,000  Level FlightAware
12:36AM 35.7870 -113.1450 244° Southwest 475 547 36,000  Level FlightAware
12:37AM 35.7440 -113.2530 244° Southwest 477 549 36,000  Level FlightAware
12:38AM 35.7050 -113.3500 244° Southwest 478 550 36,000  Level FlightAware
12:39AM 35.6600 -113.4620 244° Southwest 476 548 36,000  Level FlightAware
12:39AM 35.6270 -113.5440 244° Southwest 475 547 36,000  Level FlightAware
12:40AM 35.5810 -113.6560 243° Southwest 475 547 36,000  Level FlightAware
12:41AM 35.5380 -113.7630 244° Southwest 480 552 36,000  Level FlightAware
12:41AM 35.4990 -113.8590 244° Southwest 487 560 36,000 60 Level FlightAware
12:42AM 35.4540 -113.9700 244° Southwest 485 558 36,100 60 Climbing FlightAware
12:43AM 35.4180 -114.0560 243° Southwest 486 559 36,100 -120 Level FlightAware
12:43AM 35.3720 -114.1690 243° Southwest 483 556 36,000 -120 Descending FlightAware
12:44AM 35.3280 -114.2770 243° Southwest 482 555 36,000  Level FlightAware
12:45AM 35.2880 -114.3730 243° Southwest 482 555 36,000  Level FlightAware
12:46AM 35.2420 -114.4850 243° Southwest 482 555 36,000  Level FlightAware
12:46AM 35.2010 -114.5820 243° Southwest 483 556 36,000  Level FlightAware
12:47AM 35.1600 -114.6810 243° Southwest 481 554 36,000  Level FlightAware
12:48AM 35.1160 -114.7860 243° Southwest 481 554 36,000  Level FlightAware
12:48AM 35.0760 -114.8820 243° Southwest 479 551 36,000  Level FlightAware
12:49AM 35.0350 -114.9780 242° Southwest 480 552 36,000  Level FlightAware
12:50AM 34.9910 -115.0840 243° Southwest 481 554 36,000  Level FlightAware
12:50AM 34.9490 -115.1820 242° Southwest 481 554 36,000 60 Level FlightAware
12:51AM 34.9080 -115.2780 243° Southwest 477 549 36,100  Climbing FlightAware
12:52AM 34.8610 -115.3880 243° Southwest 473 544 36,000 -120 Descending FlightAware
12:52AM 34.8210 -115.4830 243° Southwest 473 544 36,000  Level FlightAware
12:53AM 34.7770 -115.5860 243° Southwest 475 547 36,000  Level FlightAware
12:54AM 34.7370 -115.6780 242° Southwest 477 549 36,000  Level FlightAware
12:55AM 34.6890 -115.7910 243° Southwest 481 554 36,000  Level FlightAware
12:55AM 34.6480 -115.8850 242° Southwest 484 557 36,000  Level FlightAware
12:56AM 34.6020 -115.9910 242° Southwest 484 557 36,000 -420 Level FlightAware
12:57AM 34.5640 -116.0780 242° Southwest 484 557 35,500 -1,080 Descending FlightAware
12:57AM 34.5190 -116.1800 242° Southwest 473 544 34,600 -1,920 Descending FlightAware
12:58AM 34.4720 -116.2900 243° Southwest 473 544 32,700 -2,640 Descending FlightAware
12:59AM 34.4340 -116.3760 242° Southwest 480 552 30,900 -3,060 Descending FlightAware
01:00AM 34.3850 -116.4870 242° Southwest 492 566 28,400 -3,000 Descending FlightAware
01:00AM 34.3410 -116.5870 242° Southwest 489 563 26,700 -2,340 Descending FlightAware
01:01AM 34.2990 -116.6810 242° Southwest 478 550 25,300 -2,220 Descending FlightAware
01:02AM 34.2570 -116.7750 242° Southwest 470 541 23,800 -2,220 Descending FlightAware
01:03AM 34.1950 -116.9140 242° Southwest 452 520 21,600 -2,220 Descending FlightAware
01:03AM 34.1560 -117.0010 242° Southwest 442 509 20,100 -1,800 Descending FlightAware
01:04AM 34.1140 -117.0940 241° Southwest 421 484 19,100 -1,560 Descending FlightAware
01:05AM 34.0780 -117.1760 242° Southwest 416 479 17,900 -1,620 Descending FlightAware
01:05AM 34.0470 -117.2560 245° Southwest 353 406 17,000 -1,800 Descending FlightAware
01:06AM 34.0390 -117.3390 263° West 323 372 15,400 -1,920 Descending FlightAware
01:07AM 34.0320 -117.4120 263° West 320 368 14,300 -1,620 Descending FlightAware
01:08AM 34.0300 -117.4960 268° West 304 350 13,000 -1,560 Descending FlightAware
01:08AM 34.0340 -117.5650 274° West 296 341 12,000 -1,440 Descending FlightAware
01:09AM 34.0270 -117.6490 264° West 309 356 10,900 -1,380 Descending FlightAware
01:10AM 34.0200 -117.7170 263° West 304 350 10,000 -1,320 Descending FlightAware
01:10AM 34.0180 -117.7410 264° West 300 345 9,700 -1,620 Descending FlightAware
01:10AM 34.0130 -117.7890 263° West 297 342 8,800 -1,620 Descending FlightAware
01:11AM 34.0080 -117.8390 263° West 291 335 8,100 -1,020 Descending FlightAware
01:11AM 34.0040 -117.8790 263° West 274 315 7,900 -900 Descending FlightAware
01:12AM 34.0000 -117.9250 264° West 272 313 7,300 -1,200 Descending FlightAware
01:12AM 33.9960 -117.9600 262° West 264 304 6,800 -1,200 Descending FlightAware
01:13AM 33.9940 -117.9830 264° West 260 299 6,500 -1,200 Descending FlightAware
01:13AM 33.9900 -118.0250 263° West 256 295 5,900 -1,380 Descending FlightAware
01:13AM 33.9880 -118.0460 263° West 258 297 5,500 -1,200 Descending FlightAware
01:14AM 33.9840 -118.0830 263° West 250 288 5,100 -1,020 Descending FlightAware
01:14AM 33.9800 -118.1230 263° West 243 280 4,600 -1,140 Descending FlightAware
01:15AM 33.9770 -118.1550 264° West 244 281 4,100 -1,440 Descending FlightAware
01:15AM 33.9730 -118.1960 263° West 240 276 3,300 -1,440 Descending FlightAware
01:16AM 33.9690 -118.2340 263° West 229 264 2,700 -1,140 Descending FlightAware
01:16AM 33.9660 -118.2640 263° West 210 242 2,300 -780 Descending FlightAware
01:16AM 33.9650 -118.2780 265° West 198 228 2,200 -900 Descending FlightAware
01:17AM 33.9620 -118.2990 260° West 177 204 1,800 -1,380 Descending FlightAware
01:17AM 33.9610 -118.3170 266° West 170 196 1,400 -600 Descending FlightAware
01:17AM 33.9580 -118.3380 260° West 170 196 1,400 -180 Level FlightAware
01:18AM 33.9590 -118.3280 83° East 157 181 1,300 -660 Descending FlightAware
01:18AM 33.9560 -118.3660 265° West 132 152 700 -720 Descending FlightAware
01:19AM 33.9540 -118.3880 264° West 133 153 400 -540 Descending FlightAware
01:19AM 33.9530 -118.3930 256° West 132 152 300 -420 Descending FlightAware
01:19AM 33.9520 -118.4010 261° West 133 153 200 -180 Descending FlightAware
01:20AM 33.9500 -118.4190 262° West 133 153 200  Level FlightAware
01:27AM 33.9425 -118.4081 259° West  Level Estimated